createdAt,value
2023-03-29T00:01:01.724Z,0.70
2023-03-29T00:03:31.493Z,0.70
2023-03-29T00:06:04.200Z,0.70
2023-03-29T00:08:34.789Z,0.80
2023-03-29T00:11:03.827Z,0.70
2023-03-29T00:13:32.589Z,0.70
2023-03-29T00:16:01.031Z,1.07
2023-03-29T00:18:29.426Z,0.93
2023-03-29T00:21:01.570Z,1.00
2023-03-29T00:23:30.295Z,1.73
2023-03-29T00:25:58.951Z,1.30
2023-03-29T00:28:27.583Z,1.00
2023-03-29T00:31:04.944Z,1.30
2023-03-29T00:33:33.673Z,1.10
2023-03-29T00:36:02.698Z,1.23
2023-03-29T00:38:31.764Z,2.40
2023-03-29T00:41:00.692Z,1.90
2023-03-29T00:43:29.386Z,2.43
2023-03-29T00:45:57.793Z,2.70
2023-03-29T00:48:30.843Z,3.97
2023-03-29T00:51:04.787Z,3.53
2023-03-29T00:53:40.437Z,5.00
2023-03-29T00:56:14.903Z,2.60
2023-03-29T00:58:53.832Z,4.10
2023-03-29T01:01:34.773Z,4.10
2023-03-29T01:04:18.807Z,3.27
2023-03-29T01:06:58.210Z,5.37
2023-03-29T01:09:31.130Z,3.50
2023-03-29T01:12:05.233Z,2.80
2023-03-29T01:14:42.626Z,4.43
2023-03-29T01:17:11.760Z,4.87
2023-03-29T01:19:45.207Z,3.50
2023-03-29T01:22:29.100Z,3.80
2023-03-29T01:25:27.018Z,4.17
2023-03-29T01:28:09.540Z,4.53
2023-03-29T01:30:57.510Z,5.60
2023-03-29T01:33:31.409Z,3.63
2023-03-29T01:36:17.259Z,8.20
2023-03-29T01:38:49.557Z,14.10
2023-03-29T01:41:18.333Z,10.90
2023-03-29T01:44:00.113Z,7.90
2023-03-29T01:46:53.750Z,5.40
2023-03-29T01:49:35.536Z,10.33
2023-03-29T01:52:20.109Z,12.13
2023-03-29T01:55:23.641Z,14.20
2023-03-29T01:57:54.999Z,7.60
2023-03-29T02:00:28.469Z,4.97
2023-03-29T02:03:01.662Z,5.93
2023-03-29T02:05:32.464Z,5.47
2023-03-29T02:08:06.188Z,5.30
2023-03-29T02:10:36.127Z,4.10
2023-03-29T02:13:05.144Z,5.47
2023-03-29T02:15:33.612Z,5.90
2023-03-29T02:18:02.334Z,6.30
2023-03-29T02:20:41.397Z,6.87
2023-03-29T02:23:15.668Z,8.73
2023-03-29T02:25:46.488Z,11.07
2023-03-29T02:28:15.307Z,9.10
2023-03-29T02:31:12.802Z,9.77
2023-03-29T02:33:53.819Z,7.57
2023-03-29T02:36:29.014Z,7.10
2023-03-29T02:38:59.478Z,4.93
2023-03-29T02:41:29.232Z,5.40
2023-03-29T02:43:59.453Z,5.97
2023-03-29T02:46:28.916Z,6.30
2023-03-29T02:48:58.399Z,5.77
2023-03-29T02:51:32.065Z,4.87
2023-03-29T02:54:20.402Z,5.47
2023-03-29T02:56:51.501Z,5.70
2023-03-29T02:59:20.618Z,5.37
2023-03-29T03:01:49.396Z,5.70
2023-03-29T03:04:24.285Z,6.30
2023-03-29T03:06:52.742Z,5.90
2023-03-29T03:09:21.576Z,5.40
2023-03-29T03:11:50.061Z,5.70
2023-03-29T03:14:19.909Z,6.00
2023-03-29T03:16:48.306Z,4.55
2023-03-29T03:19:17.102Z,5.00
2023-03-29T03:21:46.377Z,5.00
2023-03-29T03:24:14.990Z,5.50
2023-03-29T03:26:43.347Z,3.90
2023-03-29T03:29:12.135Z,4.10
2023-03-29T03:31:42.075Z,5.13
2023-03-29T03:34:10.473Z,4.07
2023-03-29T03:36:39.076Z,6.00
2023-03-29T03:39:08.040Z,4.30
2023-03-29T03:41:36.617Z,4.60
2023-03-29T03:44:05.189Z,3.75
2023-03-29T03:46:33.719Z,4.18
2023-03-29T03:49:02.079Z,3.60
2023-03-29T03:51:30.555Z,4.75
2023-03-29T03:53:58.919Z,4.20
2023-03-29T03:56:30.664Z,4.88
2023-03-29T03:58:59.121Z,4.65
2023-03-29T04:01:28.166Z,4.65
2023-03-29T04:03:56.644Z,2.90
2023-03-29T04:06:26.212Z,3.05
2023-03-29T04:08:54.589Z,3.97
2023-03-29T04:11:23.061Z,2.90
2023-03-29T04:13:51.424Z,3.37
2023-03-29T04:16:19.880Z,3.35
2023-03-29T04:18:48.846Z,2.33
2023-03-29T04:21:18.870Z,4.18
2023-03-29T04:23:49.677Z,2.80
2023-03-29T04:26:18.860Z,3.40
2023-03-29T04:28:47.354Z,3.00
2023-03-29T04:31:16.595Z,3.03
2023-03-29T04:33:47.588Z,2.65
2023-03-29T04:36:16.768Z,3.40
2023-03-29T04:38:47.720Z,4.70
2023-03-29T04:41:16.655Z,4.27
2023-03-29T04:43:47.144Z,4.40
2023-03-29T04:46:16.321Z,5.30
2023-03-29T04:48:44.778Z,4.70
2023-03-29T04:51:13.560Z,7.20
2023-03-29T04:53:41.934Z,4.80
2023-03-29T04:56:10.781Z,5.50
2023-03-29T04:58:39.175Z,5.97
2023-03-29T05:01:07.685Z,6.38
2023-03-29T05:03:36.416Z,6.33
2023-03-29T05:06:07.771Z,6.70
2023-03-29T05:08:39.757Z,7.30
2023-03-29T05:11:09.476Z,8.00
2023-03-29T05:13:38.689Z,8.20
2023-03-29T05:16:08.558Z,6.15
2023-03-29T05:18:37.021Z,8.52
2023-03-29T05:21:05.599Z,7.75
2023-03-29T05:23:35.123Z,11.35
2023-03-29T05:26:04.692Z,7.32
2023-03-29T05:28:34.501Z,8.38
2023-03-29T05:31:05.189Z,9.93
2023-03-29T05:33:34.515Z,8.00
2023-03-29T05:36:17.277Z,6.38
2023-03-29T05:38:47.547Z,10.60
2023-03-29T05:41:16.971Z,9.63
2023-03-29T05:43:45.722Z,9.85
2023-03-29T05:46:14.190Z,9.80
2023-03-29T05:48:42.951Z,16.40
2023-03-29T05:51:11.347Z,16.27
2023-03-29T05:53:39.716Z,16.58
2023-03-29T05:56:09.765Z,16.20
2023-03-29T05:58:39.080Z,19.35
2023-03-29T06:01:14.141Z,22.10
2023-03-29T06:03:43.036Z,15.57
2023-03-29T06:06:11.830Z,18.05
2023-03-29T06:08:40.430Z,14.90
2023-03-29T06:11:11.973Z,16.58
2023-03-29T06:13:41.079Z,17.70
2023-03-29T06:16:11.676Z,22.70
2023-03-29T06:18:40.985Z,17.38
2023-03-29T06:21:10.074Z,22.20
2023-03-29T06:23:38.940Z,25.63
2023-03-29T06:26:07.992Z,24.98
2023-03-29T06:28:36.458Z,24.65
2023-03-29T06:31:06.060Z,20.35
2023-03-29T06:33:35.001Z,16.23
2023-03-29T06:36:04.201Z,15.60
2023-03-29T06:38:33.016Z,17.70
2023-03-29T06:41:06.779Z,16.48
2023-03-29T06:43:35.660Z,15.80
2023-03-29T06:46:05.013Z,20.48
2023-03-29T06:48:33.419Z,14.95
2023-03-29T06:51:02.205Z,20.20
2023-03-29T06:53:31.517Z,18.27
2023-03-29T06:56:00.514Z,18.40
2023-03-29T06:58:29.635Z,14.20
2023-03-29T07:01:03.325Z,17.08
2023-03-29T07:03:32.357Z,15.73
2023-03-29T07:06:10.846Z,12.38
2023-03-29T07:08:45.728Z,16.63
2023-03-29T07:11:15.694Z,24.05
2023-03-29T07:13:45.046Z,22.48
2023-03-29T07:16:14.557Z,17.98
2023-03-29T07:18:44.779Z,19.50
2023-03-29T07:21:14.262Z,19.58
2023-03-29T07:23:43.162Z,22.35
2023-03-29T07:26:12.332Z,21.67
2023-03-29T07:28:40.771Z,18.60
2023-03-29T07:31:11.770Z,15.57
2023-03-29T07:33:40.369Z,26.00
2023-03-29T07:36:09.324Z,20.20
2023-03-29T07:38:38.695Z,25.25
2023-03-29T07:41:08.714Z,21.85
2023-03-29T07:43:37.208Z,19.58
2023-03-29T07:46:07.056Z,14.50
2023-03-29T07:48:37.760Z,19.33
2023-03-29T07:51:07.152Z,14.55
2023-03-29T07:53:35.690Z,16.40
2023-03-29T07:56:04.209Z,24.50
2023-03-29T07:58:32.658Z,19.60
2023-03-29T08:01:01.838Z,22.85
2023-03-29T08:03:30.526Z,22.15
2023-03-29T08:06:02.353Z,18.02
2023-03-29T08:08:30.821Z,19.60
2023-03-29T08:10:59.358Z,26.95
2023-03-29T08:13:27.894Z,25.05
2023-03-29T08:15:56.431Z,16.42
2023-03-29T08:18:24.799Z,20.00
2023-03-29T08:20:53.613Z,19.15
2023-03-29T08:23:22.061Z,19.88
2023-03-29T08:25:50.459Z,19.55
2023-03-29T08:28:19.278Z,23.70
2023-03-29T08:30:48.940Z,24.55
2023-03-29T08:33:17.760Z,18.02
2023-03-29T08:35:46.334Z,29.77
2023-03-29T08:38:15.110Z,37.80
2023-03-29T08:40:43.792Z,34.75
2023-03-29T08:43:33.443Z,36.05
2023-03-29T08:46:20.802Z,40.78
2023-03-29T08:48:57.933Z,23.15
2023-03-29T08:51:32.383Z,27.80
2023-03-29T08:54:08.989Z,27.33
2023-03-29T08:56:40.493Z,23.77
2023-03-29T08:59:20.684Z,26.75
2023-03-29T09:01:54.006Z,42.78
2023-03-29T09:04:34.380Z,43.80
2023-03-29T09:07:04.933Z,44.33
2023-03-29T09:09:35.577Z,38.63
2023-03-29T09:12:07.462Z,34.78
2023-03-29T09:14:49.752Z,46.85
2023-03-29T09:17:44.069Z,44.13
2023-03-29T09:20:45.011Z,39.65
2023-03-29T09:23:48.925Z,32.22
2023-03-29T09:26:23.800Z,36.08
2023-03-29T09:29:01.729Z,45.65
2023-03-29T09:31:42.578Z,43.33
2023-03-29T09:34:22.468Z,43.45
2023-03-29T09:37:07.751Z,47.47
2023-03-29T09:39:38.693Z,43.03
2023-03-29T09:42:13.517Z,34.50
2023-03-29T09:44:58.126Z,46.97
2023-03-29T09:47:58.454Z,45.30
2023-03-29T09:50:42.090Z,49.35
2023-03-29T09:53:11.427Z,57.50
2023-03-29T09:55:41.563Z,33.63
2023-03-29T09:58:31.876Z,34.13
2023-03-29T10:01:05.810Z,41.72
2023-03-29T10:03:35.763Z,35.53
2023-03-29T10:06:07.552Z,24.52
2023-03-29T10:09:01.544Z,28.58
2023-03-29T10:12:00.865Z,24.38
2023-03-29T10:14:37.928Z,26.15
2023-03-29T10:17:16.343Z,23.65
2023-03-29T10:20:20.710Z,30.20
2023-03-29T10:22:58.672Z,25.83
2023-03-29T10:25:35.042Z,21.52
2023-03-29T10:28:15.404Z,20.48
2023-03-29T10:30:46.681Z,23.20
2023-03-29T10:33:20.288Z,29.73
2023-03-29T10:35:50.064Z,40.70
2023-03-29T10:38:21.709Z,59.67
2023-03-29T10:40:55.032Z,76.95
2023-03-29T10:43:36.785Z,49.40
2023-03-29T10:46:18.525Z,48.28
2023-03-29T10:48:52.466Z,38.20
2023-03-29T10:51:21.260Z,23.25
2023-03-29T10:53:49.850Z,21.95
2023-03-29T10:56:28.771Z,20.88
2023-03-29T10:59:12.209Z,18.33
2023-03-29T11:02:14.433Z,21.05
2023-03-29T11:04:57.556Z,35.33
2023-03-29T11:07:25.953Z,24.35
2023-03-29T11:10:04.402Z,32.40
2023-03-29T11:12:56.505Z,31.80
2023-03-29T11:15:48.274Z,31.23
2023-03-29T11:18:45.707Z,30.42
2023-03-29T11:21:23.308Z,26.57
2023-03-29T11:23:52.124Z,23.65
2023-03-29T11:26:35.679Z,26.13
2023-03-29T11:29:15.673Z,22.48
2023-03-29T11:32:08.841Z,29.52
2023-03-29T11:35:07.285Z,35.00
2023-03-29T11:38:01.116Z,30.05
2023-03-29T11:40:54.127Z,31.83
2023-03-29T11:43:37.068Z,40.83
2023-03-29T11:46:20.213Z,51.28
2023-03-29T11:49:23.939Z,45.20
2023-03-29T11:51:56.033Z,41.22
2023-03-29T11:54:35.274Z,47.83
2023-03-29T11:57:29.937Z,46.90
2023-03-29T12:00:20.489Z,39.13
2023-03-29T12:03:10.965Z,49.33
2023-03-29T12:06:05.230Z,52.35
2023-03-29T12:08:42.323Z,48.88
2023-03-29T12:11:56.131Z,48.03
2023-03-29T12:14:48.559Z,40.00
2023-03-29T12:17:28.177Z,39.05
2023-03-29T12:20:16.281Z,44.30
2023-03-29T12:22:49.916Z,44.95
2023-03-29T12:25:25.917Z,49.50
2023-03-29T12:28:25.594Z,40.65
2023-03-29T12:31:13.722Z,39.90
2023-03-29T12:34:00.259Z,64.50
2023-03-29T12:37:12.196Z,49.58
2023-03-29T12:39:41.709Z,52.85
2023-03-29T12:42:24.921Z,47.72
2023-03-29T12:44:59.813Z,43.40
2023-03-29T12:47:34.516Z,48.63
2023-03-29T12:50:05.372Z,44.70
2023-03-29T12:52:36.697Z,50.47
2023-03-29T12:55:27.340Z,37.83
2023-03-29T12:58:05.678Z,52.58
2023-03-29T13:00:45.397Z,72.68
2023-03-29T13:03:50.663Z,86.93
2023-03-29T13:07:04.281Z,41.45
2023-03-29T13:09:37.578Z,52.57
2023-03-29T13:12:12.104Z,54.90
2023-03-29T13:14:45.221Z,32.42
2023-03-29T13:17:39.502Z,50.80
2023-03-29T13:20:29.569Z,52.78
2023-03-29T13:23:22.472Z,42.15
2023-03-29T13:26:08.188Z,32.50
2023-03-29T13:28:47.560Z,32.17
2023-03-29T13:31:42.581Z,33.93
2023-03-29T13:34:35.465Z,30.92
2023-03-29T13:37:54.004Z,39.95
2023-03-29T13:40:45.141Z,29.70
2023-03-29T13:43:21.403Z,70.32
2023-03-29T13:45:58.792Z,44.10
2023-03-29T13:48:38.361Z,35.10
2023-03-29T13:51:33.842Z,26.02
2023-03-29T13:54:25.516Z,43.87
2023-03-29T13:57:05.510Z,52.15
2023-03-29T13:59:43.206Z,27.92
2023-03-29T14:02:20.972Z,42.93
2023-03-29T14:04:52.150Z,59.30
2023-03-29T14:07:27.022Z,29.30
2023-03-29T14:09:59.003Z,30.42
2023-03-29T14:12:31.872Z,51.40
2023-03-29T14:15:03.100Z,62.93
2023-03-29T14:17:31.613Z,37.70
2023-03-29T14:20:01.708Z,36.70
2023-03-29T14:22:35.027Z,32.90
2023-03-29T14:25:13.335Z,41.37
2023-03-29T14:27:43.481Z,44.30
2023-03-29T14:30:38.185Z,27.13
2023-03-29T14:33:06.923Z,43.90
2023-03-29T14:35:35.558Z,29.02
2023-03-29T14:38:04.413Z,36.30
2023-03-29T14:40:33.642Z,61.78
2023-03-29T14:43:07.595Z,32.30
2023-03-29T14:45:36.469Z,53.97
2023-03-29T14:48:05.832Z,25.73
2023-03-29T14:50:34.668Z,30.50
2023-03-29T14:53:03.974Z,25.07
2023-03-29T14:55:33.203Z,26.57
2023-03-29T14:58:01.698Z,38.10
2023-03-29T15:00:39.489Z,33.03
2023-03-29T15:03:15.877Z,30.97
2023-03-29T15:06:02.735Z,37.73
2023-03-29T15:08:38.762Z,23.40
2023-03-29T15:11:18.734Z,29.93
2023-03-29T15:13:48.828Z,28.13
2023-03-29T15:16:28.721Z,24.73
2023-03-29T15:18:58.310Z,26.80
2023-03-29T15:21:33.370Z,24.37
2023-03-29T15:24:04.686Z,21.00
2023-03-29T15:26:33.184Z,37.13
2023-03-29T15:29:15.494Z,28.07
2023-03-29T15:31:44.190Z,28.67
2023-03-29T15:34:27.023Z,22.05
2023-03-29T15:36:58.123Z,26.53
2023-03-29T15:39:30.592Z,19.13
2023-03-29T15:41:59.563Z,30.70
2023-03-29T15:44:34.859Z,36.07
2023-03-29T15:47:03.394Z,18.80
2023-03-29T15:49:31.927Z,23.30
2023-03-29T15:52:00.328Z,21.30
2023-03-29T15:54:29.991Z,19.93
2023-03-29T15:57:09.622Z,21.10
2023-03-29T15:59:38.195Z,28.37
2023-03-29T16:02:08.558Z,18.03
2023-03-29T16:04:37.009Z,17.27
2023-03-29T16:07:14.243Z,28.20
2023-03-29T16:09:43.422Z,23.10
2023-03-29T16:12:11.951Z,22.67
2023-03-29T16:14:42.636Z,20.10
2023-03-29T16:17:11.750Z,22.73
2023-03-29T16:19:40.170Z,19.90
2023-03-29T16:22:08.823Z,16.07
2023-03-29T16:24:37.997Z,16.17
2023-03-29T16:27:06.630Z,22.33
2023-03-29T16:29:35.164Z,17.37
2023-03-29T16:32:06.139Z,20.47
2023-03-29T16:34:36.727Z,20.47
2023-03-29T16:37:05.200Z,17.03
2023-03-29T16:39:33.603Z,23.13
2023-03-29T16:42:02.047Z,23.40
2023-03-29T16:44:30.521Z,15.90
2023-03-29T16:46:59.172Z,15.30
2023-03-29T16:49:27.734Z,15.03
2023-03-29T16:51:56.876Z,13.63
2023-03-29T16:54:26.526Z,12.93
2023-03-29T16:56:55.018Z,17.37
2023-03-29T16:59:23.681Z,13.60
2023-03-29T17:01:52.256Z,18.17
2023-03-29T17:04:20.836Z,17.67
2023-03-29T17:06:49.503Z,13.48
2023-03-29T17:09:18.354Z,17.43
2023-03-29T17:11:46.991Z,13.80
2023-03-29T17:14:15.531Z,15.73
2023-03-29T17:16:43.979Z,17.30
2023-03-29T17:19:12.547Z,14.60
2023-03-29T17:21:40.952Z,13.67
2023-03-29T17:24:10.575Z,13.27
2023-03-29T17:26:39.148Z,18.20
2023-03-29T17:29:07.703Z,13.23
2023-03-29T17:31:37.326Z,13.47
2023-03-29T17:34:05.815Z,11.37
2023-03-29T17:36:34.611Z,14.40
2023-03-29T17:39:03.086Z,11.50
2023-03-29T17:41:31.673Z,11.67
2023-03-29T17:44:00.126Z,17.53
2023-03-29T17:46:28.747Z,15.20
2023-03-29T17:48:59.838Z,15.18
2023-03-29T17:51:28.917Z,15.53
2023-03-29T17:53:57.928Z,19.37
2023-03-29T17:56:27.414Z,16.88
2023-03-29T17:58:56.257Z,17.50
2023-03-29T18:01:24.814Z,16.47
2023-03-29T18:03:53.279Z,16.17
2023-03-29T18:06:22.099Z,16.40
2023-03-29T18:08:50.588Z,14.17
2023-03-29T18:11:23.288Z,15.00
2023-03-29T18:13:53.723Z,13.07
2023-03-29T18:16:23.381Z,14.00
2023-03-29T18:18:52.788Z,14.07
2023-03-29T18:21:21.737Z,14.43
2023-03-29T18:23:53.852Z,14.13
2023-03-29T18:26:24.245Z,12.47
2023-03-29T18:28:53.238Z,13.90
2023-03-29T18:31:21.834Z,13.47
2023-03-29T18:33:50.339Z,12.57
2023-03-29T18:36:19.005Z,10.60
2023-03-29T18:38:47.454Z,11.73
2023-03-29T18:41:16.509Z,11.17
2023-03-29T18:43:45.003Z,11.90
2023-03-29T18:46:13.466Z,11.23
2023-03-29T18:48:42.532Z,10.77
2023-03-29T18:51:13.432Z,9.10
2023-03-29T18:53:43.753Z,8.90
2023-03-29T18:56:12.170Z,9.25
2023-03-29T18:58:40.691Z,9.20
2023-03-29T19:01:10.423Z,7.03
2023-03-29T19:03:39.032Z,9.73
2023-03-29T19:06:08.736Z,7.30
2023-03-29T19:08:39.570Z,6.80
2023-03-29T19:11:10.546Z,7.63
2023-03-29T19:13:39.334Z,7.63
2023-03-29T19:16:08.052Z,7.10
2023-03-29T19:18:36.775Z,8.20
2023-03-29T19:21:05.594Z,7.30
2023-03-29T19:23:34.032Z,7.97
2023-03-29T19:26:04.585Z,6.70
2023-03-29T19:28:33.957Z,6.77
2023-03-29T19:31:03.774Z,6.43
2023-03-29T19:33:32.300Z,7.10
2023-03-29T19:36:00.832Z,7.50
2023-03-29T19:38:29.286Z,7.43
2023-03-29T19:40:57.692Z,6.10
2023-03-29T19:43:26.228Z,5.70
2023-03-29T19:45:54.577Z,5.30
2023-03-29T19:48:24.216Z,3.70
2023-03-29T19:50:53.216Z,4.05
2023-03-29T19:53:21.936Z,4.00
2023-03-29T19:55:50.716Z,4.13
2023-03-29T19:58:19.088Z,4.27
2023-03-29T20:00:47.794Z,3.90
2023-03-29T20:03:16.548Z,3.33
2023-03-29T20:05:45.239Z,4.17
2023-03-29T20:08:13.778Z,3.80
2023-03-29T20:10:42.367Z,3.75
2023-03-29T20:13:10.797Z,3.67
2023-03-29T20:15:39.179Z,4.00
2023-03-29T20:18:07.802Z,3.83
2023-03-29T20:20:36.469Z,4.60
2023-03-29T20:23:05.621Z,4.73
2023-03-29T20:25:37.051Z,4.90
2023-03-29T20:28:07.337Z,4.20
2023-03-29T20:30:36.984Z,4.33
2023-03-29T20:33:05.528Z,4.90
2023-03-29T20:35:34.191Z,4.10
2023-03-29T20:38:03.003Z,4.67
2023-03-29T20:40:32.355Z,4.40
2023-03-29T20:43:00.870Z,4.32
2023-03-29T20:45:31.719Z,3.63
2023-03-29T20:48:05.819Z,4.20
2023-03-29T20:50:34.362Z,4.40
2023-03-29T20:53:04.770Z,4.43
2023-03-29T20:55:38.903Z,4.00
2023-03-29T20:58:08.575Z,4.43
2023-03-29T21:00:38.480Z,4.03
2023-03-29T21:03:07.264Z,4.03
2023-03-29T21:05:35.891Z,4.43
2023-03-29T21:08:05.071Z,5.47
2023-03-29T21:10:33.641Z,4.50
2023-03-29T21:13:03.111Z,4.83
2023-03-29T21:15:32.678Z,5.70
2023-03-29T21:18:01.246Z,5.50
2023-03-29T21:20:29.668Z,5.40
2023-03-29T21:22:58.828Z,6.17
2023-03-29T21:25:27.260Z,5.50
2023-03-29T21:27:55.675Z,5.60
2023-03-29T21:30:24.075Z,5.57
2023-03-29T21:32:52.568Z,4.40
2023-03-29T21:35:21.426Z,4.00
2023-03-29T21:37:49.826Z,4.13
2023-03-29T21:40:18.268Z,3.67
2023-03-29T21:42:47.138Z,3.80
2023-03-29T21:45:15.583Z,4.23
2023-03-29T21:47:44.236Z,3.30
2023-03-29T21:50:12.992Z,4.17
2023-03-29T21:52:41.380Z,4.90
2023-03-29T21:55:10.016Z,5.10
2023-03-29T21:57:38.432Z,5.70
2023-03-29T22:00:11.885Z,6.10
2023-03-29T22:02:41.294Z,4.03
2023-03-29T22:05:10.131Z,4.10
2023-03-29T22:07:41.458Z,3.77
2023-03-29T22:10:12.251Z,4.53
2023-03-29T22:12:42.074Z,3.67
2023-03-29T22:15:15.856Z,3.50
2023-03-29T22:17:44.415Z,2.87
2023-03-29T22:20:14.264Z,3.60
2023-03-29T22:22:53.515Z,2.70
2023-03-29T22:25:23.531Z,2.90
2023-03-29T22:27:52.261Z,2.60
2023-03-29T22:30:20.740Z,3.40
2023-03-29T22:32:49.302Z,2.87
2023-03-29T22:35:17.754Z,3.20
2023-03-29T22:37:46.356Z,3.20
2023-03-29T22:40:15.946Z,3.50
2023-03-29T22:42:44.396Z,3.37
2023-03-29T22:45:12.941Z,3.40
2023-03-29T22:47:41.376Z,3.13
2023-03-29T22:50:10.215Z,2.90
2023-03-29T22:52:38.719Z,2.77
2023-03-29T22:55:07.752Z,3.08
2023-03-29T22:57:36.236Z,2.83
2023-03-29T23:00:09.609Z,2.70
2023-03-29T23:02:38.643Z,2.90
2023-03-29T23:05:07.697Z,2.60
2023-03-29T23:07:37.326Z,2.60
2023-03-29T23:10:07.804Z,2.53
2023-03-29T23:12:39.198Z,2.60
2023-03-29T23:15:08.812Z,2.33
2023-03-29T23:17:37.913Z,2.53
2023-03-29T23:20:06.978Z,2.87
2023-03-29T23:22:37.058Z,2.63
2023-03-29T23:25:05.725Z,2.43
2023-03-29T23:27:34.181Z,2.50
2023-03-29T23:30:02.578Z,2.43
2023-03-29T23:32:31.064Z,1.97
2023-03-29T23:35:00.846Z,2.30
2023-03-29T23:37:29.232Z,2.07
2023-03-29T23:39:57.796Z,1.70
2023-03-29T23:42:26.244Z,2.23
2023-03-29T23:44:54.638Z,2.00
2023-03-29T23:47:23.044Z,2.80
2023-03-29T23:49:54.125Z,2.50
2023-03-29T23:52:23.905Z,2.33
2023-03-29T23:54:52.396Z,2.53
2023-03-29T23:57:22.093Z,2.70
2023-03-29T23:59:53.406Z,2.43
